Hernderson, Zimbabwe

12:22 AM CAT on August 25, 2016 (GMT +0200)
Borrowdale Brooke | | Change Station

Elev 4757 ft 17.71 °S, 31.14 °E | Updated 1 minute ago

Clear
Clear
50.7 °F
Feels Like 50.7 °F
N
0.0
Wind Variable Wind from NW
Gusts 0.0 mph

Today
High -- | Low -- °F
--% Chance of Precip.
Yesterday
High -- | Low -- °F
Precip. -- in
Pressure 30.36 in
Visibility -9999.0 miles
Clouds
Dew Point 40 °F
Humidity 67%
Rainfall 0.00 in
Snow Depth Not available.
6:08 AM 5:48 PM
Waning Gibbous, 53% visible
METAR FVHA 242200Z 08006KT CAVOK 10/06 Q1028 NOSIG
Pressure 30.36 in
Visibility -9999.0 miles
Clouds
Dew Point 40 °F
Humidity 67%
Rainfall 0.00 in
Snow Depth Not available.
6:08 AM 5:48 PM
Waning Gibbous, 53% visible
METAR FVHA 242200Z 08006KT CAVOK 10/06 Q1028 NOSIG

10-Day Weather Forecast

No radar image for this location.
×

Almanac

Astronomy

Aug. 25, 2016 Rise Set
Actual Time
Civil Twilight
Nautical Twilight
Astronomical Twilight
Moon
Length of Visible Light
Length of Day
Tomorrow will be .
, % of the Moon is Illuminated

Today's Extremes

Country Highs Country Lows

Community

WunderPhotos

Upload Photos

1,934,728 photos uploaded!

WunderBlog® & News

Nearby

Air Quality

  Air Quality AQ Index Pollutant
Not available.

Snow Depth

Station Depth Elevation

Earthquake Activity

City Distance Mag. Time & Date
Minimum magnitude displayed is 2.5.

Coastal Water Temperatures

Place Temperature

Stations

Nearby Weather Stations

Station Location Temp. Windchill Dew Point Humidity Wind Precip. Elev Updated Type